sensor_id;sensor_type;location;lat;lon;timestamp;P1;durP1;ratioP1;P2;durP2;ratioP2
29500;SDS011;16450;50.288;10.966;2024-03-06T00:01:51;33.63;;;14.40;;
29500;SDS011;16450;50.288;10.966;2024-03-06T00:04:54;30.37;;;14.97;;
29500;SDS011;16450;50.288;10.966;2024-03-06T00:07:56;29.07;;;14.63;;
29500;SDS011;16450;50.288;10.966;2024-03-06T00:10:58;28.87;;;14.03;;
29500;SDS011;16450;50.288;10.966;2024-03-06T00:13:59;28.90;;;13.43;;
29500;SDS011;16450;50.288;10.966;2024-03-06T00:17:02;25.97;;;12.57;;
29500;SDS011;16450;50.288;10.966;2024-03-06T00:20:06;26.83;;;13.87;;
29500;SDS011;16450;50.288;10.966;2024-03-06T00:23:09;26.67;;;13.93;;
29500;SDS011;16450;50.288;10.966;2024-03-06T00:26:12;29.63;;;14.87;;
29500;SDS011;16450;50.288;10.966;2024-03-06T00:29:14;27.53;;;13.17;;
29500;SDS011;16450;50.288;10.966;2024-03-06T00:32:16;28.67;;;14.33;;
29500;SDS011;16450;50.288;10.966;2024-03-06T00:35:18;29.43;;;13.40;;
29500;SDS011;16450;50.288;10.966;2024-03-06T00:38:20;24.37;;;11.97;;
29500;SDS011;16450;50.288;10.966;2024-03-06T00:41:22;29.03;;;14.90;;
29500;SDS011;16450;50.288;10.966;2024-03-06T00:44:24;26.23;;;13.90;;
29500;SDS011;16450;50.288;10.966;2024-03-06T00:47:26;30.97;;;15.23;;
29500;SDS011;16450;50.288;10.966;2024-03-06T00:50:28;31.43;;;14.07;;
29500;SDS011;16450;50.288;10.966;2024-03-06T00:53:30;26.60;;;13.90;;
29500;SDS011;16450;50.288;10.966;2024-03-06T00:56:32;30.53;;;14.50;;
29500;SDS011;16450;50.288;10.966;2024-03-06T00:59:38;30.33;;;14.70;;
29500;SDS011;16450;50.288;10.966;2024-03-06T01:02:39;31.53;;;14.57;;
29500;SDS011;16450;50.288;10.966;2024-03-06T01:05:41;26.10;;;13.80;;
29500;SDS011;16450;50.288;10.966;2024-03-06T01:08:43;29.90;;;14.10;;
29500;SDS011;16450;50.288;10.966;2024-03-06T01:11:45;29.60;;;14.23;;
29500;SDS011;16450;50.288;10.966;2024-03-06T01:14:49;27.17;;;12.63;;
29500;SDS011;16450;50.288;10.966;2024-03-06T01:17:51;31.27;;;14.90;;
29500;SDS011;16450;50.288;10.966;2024-03-06T01:20:52;27.83;;;13.57;;
29500;SDS011;16450;50.288;10.966;2024-03-06T01:23:54;29.73;;;14.03;;
29500;SDS011;16450;50.288;10.966;2024-03-06T01:26:56;28.70;;;14.00;;
29500;SDS011;16450;50.288;10.966;2024-03-06T01:29:58;29.97;;;13.07;;
29500;SDS011;16450;50.288;10.966;2024-03-06T01:33:00;30.20;;;14.67;;
29500;SDS011;16450;50.288;10.966;2024-03-06T01:36:02;29.70;;;13.03;;
29500;SDS011;16450;50.288;10.966;2024-03-06T01:39:04;25.80;;;12.37;;
29500;SDS011;16450;50.288;10.966;2024-03-06T01:42:06;29.73;;;13.57;;
29500;SDS011;16450;50.288;10.966;2024-03-06T01:45:08;27.37;;;13.83;;
29500;SDS011;16450;50.288;10.966;2024-03-06T01:48:10;28.30;;;12.90;;
29500;SDS011;16450;50.288;10.966;2024-03-06T01:51:12;27.03;;;12.17;;
29500;SDS011;16450;50.288;10.966;2024-03-06T01:54:13;27.50;;;13.57;;
29500;SDS011;16450;50.288;10.966;2024-03-06T01:57:17;27.13;;;12.70;;
29500;SDS011;16450;50.288;10.966;2024-03-06T02:00:20;27.37;;;13.30;;
29500;SDS011;16450;50.288;10.966;2024-03-06T02:03:22;30.63;;;13.53;;
29500;SDS011;16450;50.288;10.966;2024-03-06T02:06:26;27.90;;;12.87;;
29500;SDS011;16450;50.288;10.966;2024-03-06T02:09:28;24.53;;;12.87;;
29500;SDS011;16450;50.288;10.966;2024-03-06T02:12:30;28.90;;;13.13;;
29500;SDS011;16450;50.288;10.966;2024-03-06T02:15:32;29.57;;;13.93;;
29500;SDS011;16450;50.288;10.966;2024-03-06T02:18:33;29.20;;;13.63;;
29500;SDS011;16450;50.288;10.966;2024-03-06T02:21:35;26.83;;;12.53;;
29500;SDS011;16450;50.288;10.966;2024-03-06T02:24:38;25.90;;;12.47;;
29500;SDS011;16450;50.288;10.966;2024-03-06T02:27:44;27.00;;;12.07;;
29500;SDS011;16450;50.288;10.966;2024-03-06T02:30:49;26.93;;;12.60;;
29500;SDS011;16450;50.288;10.966;2024-03-06T02:33:52;23.70;;;11.60;;
29500;SDS011;16450;50.288;10.966;2024-03-06T02:36:54;26.93;;;11.90;;
29500;SDS011;16450;50.288;10.966;2024-03-06T02:39:56;26.20;;;12.63;;
29500;SDS011;16450;50.288;10.966;2024-03-06T02:42:58;23.17;;;11.37;;
29500;SDS011;16450;50.288;10.966;2024-03-06T02:46:00;23.80;;;11.67;;
29500;SDS011;16450;50.288;10.966;2024-03-06T02:49:02;27.30;;;11.90;;
29500;SDS011;16450;50.288;10.966;2024-03-06T02:52:03;23.53;;;11.47;;
29500;SDS011;16450;50.288;10.966;2024-03-06T02:55:05;23.90;;;11.90;;
29500;SDS011;16450;50.288;10.966;2024-03-06T02:58:07;26.27;;;11.63;;
29500;SDS011;16450;50.288;10.966;2024-03-06T03:01:09;28.10;;;13.43;;
29500;SDS011;16450;50.288;10.966;2024-03-06T03:04:11;28.13;;;12.80;;
29500;SDS011;16450;50.288;10.966;2024-03-06T03:07:14;24.53;;;11.87;;
29500;SDS011;16450;50.288;10.966;2024-03-06T03:10:15;28.80;;;13.37;;
29500;SDS011;16450;50.288;10.966;2024-03-06T03:13:17;29.20;;;12.90;;
29500;SDS011;16450;50.288;10.966;2024-03-06T03:16:19;29.57;;;13.30;;
29500;SDS011;16450;50.288;10.966;2024-03-06T03:19:22;27.53;;;12.57;;
29500;SDS011;16450;50.288;10.966;2024-03-06T03:22:23;27.47;;;13.23;;
29500;SDS011;16450;50.288;10.966;2024-03-06T03:25:25;33.47;;;15.30;;
29500;SDS011;16450;50.288;10.966;2024-03-06T03:28:27;28.83;;;13.97;;
29500;SDS011;16450;50.288;10.966;2024-03-06T03:31:29;29.50;;;13.10;;
29500;SDS011;16450;50.288;10.966;2024-03-06T03:34:35;32.97;;;14.03;;
29500;SDS011;16450;50.288;10.966;2024-03-06T03:37:37;26.00;;;12.67;;
29500;SDS011;16450;50.288;10.966;2024-03-06T03:40:39;27.53;;;13.53;;
29500;SDS011;16450;50.288;10.966;2024-03-06T03:43:41;29.53;;;13.63;;
29500;SDS011;16450;50.288;10.966;2024-03-06T03:46:44;25.97;;;12.80;;
29500;SDS011;16450;50.288;10.966;2024-03-06T03:49:46;32.23;;;13.13;;
29500;SDS011;16450;50.288;10.966;2024-03-06T03:53:07;33.17;;;14.13;;
29500;SDS011;16450;50.288;10.966;2024-03-06T03:56:09;28.67;;;13.07;;
29500;SDS011;16450;50.288;10.966;2024-03-06T03:59:10;28.17;;;13.03;;
29500;SDS011;16450;50.288;10.966;2024-03-06T04:02:12;28.83;;;13.00;;
29500;SDS011;16450;50.288;10.966;2024-03-06T04:05:15;29.63;;;13.30;;
29500;SDS011;16450;50.288;10.966;2024-03-06T04:08:18;29.63;;;14.17;;
29500;SDS011;16450;50.288;10.966;2024-03-06T04:11:20;27.93;;;13.43;;
29500;SDS011;16450;50.288;10.966;2024-03-06T04:14:22;32.43;;;14.43;;
29500;SDS011;16450;50.288;10.966;2024-03-06T04:17:25;27.67;;;13.63;;
29500;SDS011;16450;50.288;10.966;2024-03-06T04:20:27;31.47;;;13.53;;
29500;SDS011;16450;50.288;10.966;2024-03-06T04:23:29;28.50;;;13.40;;
29500;SDS011;16450;50.288;10.966;2024-03-06T04:26:31;25.50;;;12.60;;
29500;SDS011;16450;50.288;10.966;2024-03-06T04:29:33;26.80;;;11.80;;
29500;SDS011;16450;50.288;10.966;2024-03-06T04:32:36;26.67;;;13.40;;
29500;SDS011;16450;50.288;10.966;2024-03-06T04:35:37;28.77;;;14.00;;
29500;SDS011;16450;50.288;10.966;2024-03-06T04:38:39;29.30;;;14.20;;
29500;SDS011;16450;50.288;10.966;2024-03-06T04:41:41;32.47;;;16.00;;
29500;SDS011;16450;50.288;10.966;2024-03-06T04:44:45;33.33;;;16.90;;
29500;SDS011;16450;50.288;10.966;2024-03-06T04:47:47;29.83;;;16.30;;
29500;SDS011;16450;50.288;10.966;2024-03-06T04:50:49;31.27;;;17.30;;
29500;SDS011;16450;50.288;10.966;2024-03-06T04:53:51;28.37;;;15.60;;
29500;SDS011;16450;50.288;10.966;2024-03-06T04:56:53;27.23;;;15.53;;
29500;SDS011;16450;50.288;10.966;2024-03-06T04:59:55;29.93;;;15.57;;
29500;SDS011;16450;50.288;10.966;2024-03-06T05:02:56;30.70;;;16.03;;
29500;SDS011;16450;50.288;10.966;2024-03-06T05:06:16;28.97;;;15.53;;
29500;SDS011;16450;50.288;10.966;2024-03-06T05:09:35;28.53;;;15.40;;
29500;SDS011;16450;50.288;10.966;2024-03-06T05:12:54;27.13;;;16.57;;
29500;SDS011;16450;50.288;10.966;2024-03-06T05:16:14;28.90;;;14.97;;
29500;SDS011;16450;50.288;10.966;2024-03-06T05:19:33;25.97;;;15.07;;
29500;SDS011;16450;50.288;10.966;2024-03-06T05:22:53;28.60;;;15.67;;
29500;SDS011;16450;50.288;10.966;2024-03-06T05:26:12;28.97;;;15.40;;
29500;SDS011;16450;50.288;10.966;2024-03-06T05:29:32;27.43;;;15.50;;
29500;SDS011;16450;50.288;10.966;2024-03-06T05:32:51;28.73;;;16.20;;
29500;SDS011;16450;50.288;10.966;2024-03-06T05:36:11;28.47;;;16.30;;
29500;SDS011;16450;50.288;10.966;2024-03-06T05:39:32;27.60;;;16.10;;
29500;SDS011;16450;50.288;10.966;2024-03-06T05:42:51;30.00;;;16.70;;
29500;SDS011;16450;50.288;10.966;2024-03-06T05:46:11;28.43;;;16.53;;
29500;SDS011;16450;50.288;10.966;2024-03-06T05:49:30;30.17;;;17.17;;
29500;SDS011;16450;50.288;10.966;2024-03-06T05:52:51;33.57;;;17.33;;
29500;SDS011;16450;50.288;10.966;2024-03-06T05:56:10;28.60;;;17.40;;
29500;SDS011;16450;50.288;10.966;2024-03-06T05:59:29;33.20;;;18.23;;
29500;SDS011;16450;50.288;10.966;2024-03-06T06:02:31;33.53;;;19.03;;
29500;SDS011;16450;50.288;10.966;2024-03-06T06:05:38;32.57;;;18.70;;
29500;SDS011;16450;50.288;10.966;2024-03-06T06:08:41;34.60;;;19.77;;
29500;SDS011;16450;50.288;10.966;2024-03-06T06:11:45;33.33;;;19.17;;
29500;SDS011;16450;50.288;10.966;2024-03-06T06:14:49;34.80;;;19.63;;
29500;SDS011;16450;50.288;10.966;2024-03-06T06:17:51;34.10;;;18.37;;
29500;SDS011;16450;50.288;10.966;2024-03-06T06:20:52;36.03;;;20.47;;
29500;SDS011;16450;50.288;10.966;2024-03-06T06:23:55;35.93;;;19.67;;
29500;SDS011;16450;50.288;10.966;2024-03-06T06:26:57;37.03;;;19.80;;
29500;SDS011;16450;50.288;10.966;2024-03-06T06:29:59;35.93;;;20.43;;
29500;SDS011;16450;50.288;10.966;2024-03-06T06:33:04;37.40;;;20.63;;
29500;SDS011;16450;50.288;10.966;2024-03-06T06:36:06;39.80;;;21.17;;
29500;SDS011;16450;50.288;10.966;2024-03-06T06:39:08;37.20;;;19.97;;
29500;SDS011;16450;50.288;10.966;2024-03-06T06:42:12;38.47;;;20.53;;
29500;SDS011;16450;50.288;10.966;2024-03-06T06:45:18;39.77;;;21.63;;
29500;SDS011;16450;50.288;10.966;2024-03-06T06:48:20;42.80;;;21.60;;
29500;SDS011;16450;50.288;10.966;2024-03-06T06:51:22;42.27;;;21.50;;
29500;SDS011;16450;50.288;10.966;2024-03-06T06:54:24;43.77;;;21.43;;
29500;SDS011;16450;50.288;10.966;2024-03-06T06:57:26;39.63;;;21.77;;
29500;SDS011;16450;50.288;10.966;2024-03-06T07:00:28;42.80;;;22.13;;
29500;SDS011;16450;50.288;10.966;2024-03-06T07:03:31;41.80;;;22.47;;
29500;SDS011;16450;50.288;10.966;2024-03-06T07:06:33;41.57;;;21.57;;
29500;SDS011;16450;50.288;10.966;2024-03-06T07:09:35;39.77;;;21.50;;
29500;SDS011;16450;50.288;10.966;2024-03-06T07:12:37;40.47;;;21.03;;
29500;SDS011;16450;50.288;10.966;2024-03-06T07:15:39;38.97;;;21.90;;
29500;SDS011;16450;50.288;10.966;2024-03-06T07:18:41;41.07;;;22.10;;
29500;SDS011;16450;50.288;10.966;2024-03-06T07:21:43;40.23;;;21.23;;
29500;SDS011;16450;50.288;10.966;2024-03-06T07:24:45;39.60;;;21.03;;
29500;SDS011;16450;50.288;10.966;2024-03-06T07:27:47;41.60;;;22.27;;
29500;SDS011;16450;50.288;10.966;2024-03-06T07:30:48;42.13;;;22.30;;
29500;SDS011;16450;50.288;10.966;2024-03-06T07:33:50;41.83;;;21.70;;
29500;SDS011;16450;50.288;10.966;2024-03-06T07:36:52;39.43;;;20.53;;
29500;SDS011;16450;50.288;10.966;2024-03-06T07:39:54;39.77;;;21.50;;
29500;SDS011;16450;50.288;10.966;2024-03-06T07:42:56;41.57;;;22.07;;
29500;SDS011;16450;50.288;10.966;2024-03-06T07:45:59;38.77;;;19.87;;
29500;SDS011;16450;50.288;10.966;2024-03-06T07:49:01;39.03;;;21.23;;
29500;SDS011;16450;50.288;10.966;2024-03-06T07:52:04;41.70;;;21.30;;
29500;SDS011;16450;50.288;10.966;2024-03-06T07:55:06;42.60;;;21.43;;
29500;SDS011;16450;50.288;10.966;2024-03-06T07:58:08;41.47;;;21.53;;
29500;SDS011;16450;50.288;10.966;2024-03-06T08:01:10;41.67;;;20.63;;
29500;SDS011;16450;50.288;10.966;2024-03-06T08:04:12;39.90;;;21.47;;
29500;SDS011;16450;50.288;10.966;2024-03-06T08:07:15;40.53;;;21.03;;
29500;SDS011;16450;50.288;10.966;2024-03-06T08:10:16;39.23;;;21.07;;
29500;SDS011;16450;50.288;10.966;2024-03-06T08:13:20;38.77;;;20.27;;
29500;SDS011;16450;50.288;10.966;2024-03-06T08:16:22;37.33;;;20.63;;
29500;SDS011;16450;50.288;10.966;2024-03-06T08:19:23;40.17;;;20.07;;
29500;SDS011;16450;50.288;10.966;2024-03-06T08:22:27;37.47;;;19.23;;
29500;SDS011;16450;50.288;10.966;2024-03-06T08:25:28;39.23;;;20.83;;
29500;SDS011;16450;50.288;10.966;2024-03-06T08:28:34;39.23;;;20.03;;
29500;SDS011;16450;50.288;10.966;2024-03-06T08:31:36;40.73;;;20.07;;
29500;SDS011;16450;50.288;10.966;2024-03-06T08:34:37;42.07;;;20.27;;
29500;SDS011;16450;50.288;10.966;2024-03-06T08:37:40;45.77;;;20.90;;
29500;SDS011;16450;50.288;10.966;2024-03-06T08:40:42;41.70;;;21.60;;
29500;SDS011;16450;50.288;10.966;2024-03-06T08:43:47;39.37;;;20.77;;
29500;SDS011;16450;50.288;10.966;2024-03-06T08:46:49;40.50;;;20.80;;
29500;SDS011;16450;50.288;10.966;2024-03-06T08:49:51;42.17;;;20.67;;
29500;SDS011;16450;50.288;10.966;2024-03-06T08:52:53;43.80;;;21.27;;
29500;SDS011;16450;50.288;10.966;2024-03-06T08:55:54;38.23;;;20.70;;
29500;SDS011;16450;50.288;10.966;2024-03-06T08:58:56;39.57;;;20.67;;
29500;SDS011;16450;50.288;10.966;2024-03-06T09:01:58;41.43;;;23.07;;
29500;SDS011;16450;50.288;10.966;2024-03-06T09:05:12;39.97;;;20.23;;
29500;SDS011;16450;50.288;10.966;2024-03-06T09:08:15;42.20;;;20.60;;
29500;SDS011;16450;50.288;10.966;2024-03-06T09:11:17;39.80;;;19.93;;
29500;SDS011;16450;50.288;10.966;2024-03-06T09:14:19;39.10;;;19.83;;
29500;SDS011;16450;50.288;10.966;2024-03-06T09:17:21;37.07;;;19.10;;
29500;SDS011;16450;50.288;10.966;2024-03-06T09:20:23;36.83;;;19.40;;
29500;SDS011;16450;50.288;10.966;2024-03-06T09:23:26;35.87;;;18.70;;
29500;SDS011;16450;50.288;10.966;2024-03-06T09:26:28;35.23;;;19.23;;
29500;SDS011;16450;50.288;10.966;2024-03-06T09:29:30;34.93;;;19.33;;
29500;SDS011;16450;50.288;10.966;2024-03-06T09:32:32;35.03;;;19.07;;
29500;SDS011;16450;50.288;10.966;2024-03-06T09:35:34;35.93;;;19.63;;
29500;SDS011;16450;50.288;10.966;2024-03-06T09:38:36;39.30;;;18.40;;
29500;SDS011;16450;50.288;10.966;2024-03-06T09:41:41;37.03;;;19.50;;
29500;SDS011;16450;50.288;10.966;2024-03-06T09:44:43;33.77;;;19.53;;
29500;SDS011;16450;50.288;10.966;2024-03-06T09:47:45;36.43;;;19.63;;
29500;SDS011;16450;50.288;10.966;2024-03-06T09:50:52;36.50;;;20.00;;
29500;SDS011;16450;50.288;10.966;2024-03-06T09:53:58;36.77;;;20.07;;
29500;SDS011;16450;50.288;10.966;2024-03-06T09:57:01;38.63;;;20.40;;
29500;SDS011;16450;50.288;10.966;2024-03-06T10:00:03;37.07;;;20.47;;
29500;SDS011;16450;50.288;10.966;2024-03-06T10:03:09;35.27;;;19.53;;
29500;SDS011;16450;50.288;10.966;2024-03-06T10:06:12;35.40;;;20.37;;
29500;SDS011;16450;50.288;10.966;2024-03-06T10:09:18;35.97;;;19.63;;
29500;SDS011;16450;50.288;10.966;2024-03-06T10:12:21;34.63;;;19.33;;
29500;SDS011;16450;50.288;10.966;2024-03-06T10:15:23;34.17;;;18.73;;
29500;SDS011;16450;50.288;10.966;2024-03-06T10:18:28;31.83;;;18.07;;
29500;SDS011;16450;50.288;10.966;2024-03-06T10:21:30;32.00;;;17.90;;
29500;SDS011;16450;50.288;10.966;2024-03-06T10:24:37;33.67;;;18.30;;
29500;SDS011;16450;50.288;10.966;2024-03-06T10:27:40;33.37;;;18.03;;
29500;SDS011;16450;50.288;10.966;2024-03-06T10:30:42;35.30;;;19.33;;
29500;SDS011;16450;50.288;10.966;2024-03-06T10:33:45;35.67;;;19.60;;
29500;SDS011;16450;50.288;10.966;2024-03-06T10:36:54;34.43;;;19.37;;
29500;SDS011;16450;50.288;10.966;2024-03-06T10:39:58;32.97;;;17.83;;
29500;SDS011;16450;50.288;10.966;2024-03-06T10:43:06;33.07;;;17.80;;
29500;SDS011;16450;50.288;10.966;2024-03-06T10:46:10;33.93;;;18.43;;
29500;SDS011;16450;50.288;10.966;2024-03-06T10:49:13;32.10;;;18.23;;
29500;SDS011;16450;50.288;10.966;2024-03-06T10:52:17;30.90;;;18.00;;
29500;SDS011;16450;50.288;10.966;2024-03-06T10:55:20;31.23;;;18.03;;
29500;SDS011;16450;50.288;10.966;2024-03-06T10:58:23;34.57;;;19.47;;
29500;SDS011;16450;50.288;10.966;2024-03-06T11:01:26;31.80;;;18.93;;
29500;SDS011;16450;50.288;10.966;2024-03-06T11:04:33;35.30;;;19.47;;
29500;SDS011;16450;50.288;10.966;2024-03-06T11:07:36;35.47;;;19.93;;
29500;SDS011;16450;50.288;10.966;2024-03-06T11:10:39;34.93;;;19.47;;
29500;SDS011;16450;50.288;10.966;2024-03-06T11:13:43;36.67;;;20.97;;
29500;SDS011;16450;50.288;10.966;2024-03-06T11:17:02;36.97;;;20.13;;
29500;SDS011;16450;50.288;10.966;2024-03-06T11:20:13;34.57;;;20.27;;
29500;SDS011;16450;50.288;10.966;2024-03-06T11:23:18;38.03;;;20.57;;
29500;SDS011;16450;50.288;10.966;2024-03-06T11:26:21;34.70;;;20.27;;
29500;SDS011;16450;50.288;10.966;2024-03-06T11:29:24;37.80;;;21.27;;
29500;SDS011;16450;50.288;10.966;2024-03-06T11:32:28;39.70;;;20.37;;
29500;SDS011;16450;50.288;10.966;2024-03-06T11:35:31;38.10;;;20.50;;
29500;SDS011;16450;50.288;10.966;2024-03-06T11:38:37;36.60;;;20.13;;
29500;SDS011;16450;50.288;10.966;2024-03-06T11:44:54;42.37;;;21.80;;
29500;SDS011;16450;50.288;10.966;2024-03-06T11:48:01;41.50;;;21.30;;
29500;SDS011;16450;50.288;10.966;2024-03-06T11:51:04;37.83;;;21.17;;
29500;SDS011;16450;50.288;10.966;2024-03-06T11:54:06;43.20;;;21.70;;
29500;SDS011;16450;50.288;10.966;2024-03-06T11:57:08;36.43;;;20.40;;
29500;SDS011;16450;50.288;10.966;2024-03-06T12:00:12;41.70;;;21.50;;
29500;SDS011;16450;50.288;10.966;2024-03-06T12:03:14;38.13;;;19.80;;
29500;SDS011;16450;50.288;10.966;2024-03-06T12:06:16;40.90;;;22.00;;
29500;SDS011;16450;50.288;10.966;2024-03-06T12:09:20;37.70;;;20.57;;
29500;SDS011;16450;50.288;10.966;2024-03-06T12:12:23;38.33;;;19.87;;
29500;SDS011;16450;50.288;10.966;2024-03-06T12:15:25;35.07;;;19.10;;
29500;SDS011;16450;50.288;10.966;2024-03-06T12:18:27;33.57;;;19.00;;
29500;SDS011;16450;50.288;10.966;2024-03-06T12:21:32;35.27;;;18.97;;
29500;SDS011;16450;50.288;10.966;2024-03-06T12:24:35;33.77;;;18.70;;
29500;SDS011;16450;50.288;10.966;2024-03-06T12:27:37;35.10;;;19.63;;
29500;SDS011;16450;50.288;10.966;2024-03-06T12:30:42;34.80;;;18.40;;
29500;SDS011;16450;50.288;10.966;2024-03-06T12:33:45;32.83;;;19.03;;
29500;SDS011;16450;50.288;10.966;2024-03-06T12:37:10;32.73;;;18.20;;
29500;SDS011;16450;50.288;10.966;2024-03-06T12:40:13;33.67;;;18.53;;
29500;SDS011;16450;50.288;10.966;2024-03-06T12:43:15;39.20;;;20.27;;
29500;SDS011;16450;50.288;10.966;2024-03-06T12:46:16;35.63;;;19.77;;
29500;SDS011;16450;50.288;10.966;2024-03-06T12:49:18;31.53;;;18.47;;
29500;SDS011;16450;50.288;10.966;2024-03-06T12:52:21;31.97;;;16.93;;
29500;SDS011;16450;50.288;10.966;2024-03-06T12:55:22;28.03;;;15.63;;
29500;SDS011;16450;50.288;10.966;2024-03-06T12:58:25;27.33;;;15.27;;
29500;SDS011;16450;50.288;10.966;2024-03-06T13:01:26;27.67;;;16.03;;
29500;SDS011;16450;50.288;10.966;2024-03-06T13:04:28;26.23;;;15.20;;
29500;SDS011;16450;50.288;10.966;2024-03-06T13:07:30;27.07;;;15.40;;
29500;SDS011;16450;50.288;10.966;2024-03-06T13:10:32;26.53;;;15.97;;
29500;SDS011;16450;50.288;10.966;2024-03-06T13:13:34;29.20;;;15.30;;
29500;SDS011;16450;50.288;10.966;2024-03-06T13:16:36;23.17;;;14.23;;
29500;SDS011;16450;50.288;10.966;2024-03-06T13:19:38;26.37;;;14.97;;
29500;SDS011;16450;50.288;10.966;2024-03-06T13:22:40;25.63;;;14.60;;
29500;SDS011;16450;50.288;10.966;2024-03-06T13:25:42;24.03;;;14.07;;
29500;SDS011;16450;50.288;10.966;2024-03-06T13:28:44;23.33;;;13.70;;
29500;SDS011;16450;50.288;10.966;2024-03-06T13:31:47;27.13;;;15.30;;
29500;SDS011;16450;50.288;10.966;2024-03-06T13:34:49;28.77;;;15.17;;
29500;SDS011;16450;50.288;10.966;2024-03-06T13:37:51;25.30;;;15.10;;
29500;SDS011;16450;50.288;10.966;2024-03-06T13:40:55;25.20;;;15.40;;
29500;SDS011;16450;50.288;10.966;2024-03-06T13:43:56;27.10;;;14.57;;
29500;SDS011;16450;50.288;10.966;2024-03-06T13:46:58;28.53;;;16.27;;
29500;SDS011;16450;50.288;10.966;2024-03-06T13:50:00;24.83;;;15.27;;
29500;SDS011;16450;50.288;10.966;2024-03-06T13:53:02;29.87;;;16.37;;
29500;SDS011;16450;50.288;10.966;2024-03-06T13:56:04;30.57;;;15.80;;
29500;SDS011;16450;50.288;10.966;2024-03-06T13:59:06;26.53;;;15.70;;
29500;SDS011;16450;50.288;10.966;2024-03-06T14:02:09;29.00;;;16.90;;
29500;SDS011;16450;50.288;10.966;2024-03-06T14:05:11;29.17;;;16.07;;
29500;SDS011;16450;50.288;10.966;2024-03-06T14:08:13;26.40;;;16.53;;
29500;SDS011;16450;50.288;10.966;2024-03-06T14:11:17;29.70;;;17.30;;
29500;SDS011;16450;50.288;10.966;2024-03-06T14:14:20;31.37;;;16.30;;
29500;SDS011;16450;50.288;10.966;2024-03-06T14:17:22;29.13;;;17.30;;
29500;SDS011;16450;50.288;10.966;2024-03-06T14:20:25;31.93;;;17.50;;
29500;SDS011;16450;50.288;10.966;2024-03-06T14:23:28;28.63;;;17.57;;
29500;SDS011;16450;50.288;10.966;2024-03-06T14:26:32;31.37;;;17.53;;
29500;SDS011;16450;50.288;10.966;2024-03-06T14:29:35;29.87;;;16.60;;
29500;SDS011;16450;50.288;10.966;2024-03-06T14:32:37;30.90;;;17.40;;
29500;SDS011;16450;50.288;10.966;2024-03-06T14:35:40;28.23;;;16.60;;
29500;SDS011;16450;50.288;10.966;2024-03-06T14:38:42;26.87;;;16.53;;
29500;SDS011;16450;50.288;10.966;2024-03-06T14:41:48;27.30;;;17.00;;
29500;SDS011;16450;50.288;10.966;2024-03-06T14:44:50;28.77;;;16.47;;
29500;SDS011;16450;50.288;10.966;2024-03-06T14:47:52;28.10;;;16.50;;
29500;SDS011;16450;50.288;10.966;2024-03-06T14:50:54;29.83;;;18.00;;
29500;SDS011;16450;50.288;10.966;2024-03-06T14:53:56;30.23;;;16.87;;
29500;SDS011;16450;50.288;10.966;2024-03-06T14:56:58;30.67;;;18.13;;
29500;SDS011;16450;50.288;10.966;2024-03-06T15:00:00;29.60;;;17.97;;
29500;SDS011;16450;50.288;10.966;2024-03-06T15:03:02;28.50;;;17.57;;
29500;SDS011;16450;50.288;10.966;2024-03-06T15:06:05;32.03;;;17.83;;
29500;SDS011;16450;50.288;10.966;2024-03-06T15:09:09;31.70;;;17.47;;
29500;SDS011;16450;50.288;10.966;2024-03-06T15:12:16;27.10;;;16.70;;
29500;SDS011;16450;50.288;10.966;2024-03-06T15:15:19;29.33;;;17.10;;
29500;SDS011;16450;50.288;10.966;2024-03-06T15:18:21;29.33;;;17.13;;
29500;SDS011;16450;50.288;10.966;2024-03-06T15:21:23;28.23;;;17.20;;
29500;SDS011;16450;50.288;10.966;2024-03-06T15:24:25;30.37;;;17.63;;
29500;SDS011;16450;50.288;10.966;2024-03-06T15:27:27;29.97;;;17.10;;
29500;SDS011;16450;50.288;10.966;2024-03-06T15:30:28;27.13;;;15.73;;
29500;SDS011;16450;50.288;10.966;2024-03-06T15:33:33;27.23;;;16.37;;
29500;SDS011;16450;50.288;10.966;2024-03-06T15:36:35;30.03;;;16.80;;
29500;SDS011;16450;50.288;10.966;2024-03-06T15:39:37;31.67;;;18.70;;
29500;SDS011;16450;50.288;10.966;2024-03-06T15:42:39;35.23;;;17.97;;
29500;SDS011;16450;50.288;10.966;2024-03-06T15:45:41;29.70;;;17.73;;
29500;SDS011;16450;50.288;10.966;2024-03-06T15:48:43;30.33;;;17.77;;
29500;SDS011;16450;50.288;10.966;2024-03-06T15:51:45;32.43;;;18.73;;
29500;SDS011;16450;50.288;10.966;2024-03-06T15:54:47;29.57;;;17.47;;
29500;SDS011;16450;50.288;10.966;2024-03-06T15:57:49;31.20;;;18.33;;
29500;SDS011;16450;50.288;10.966;2024-03-06T16:00:51;29.50;;;16.73;;
29500;SDS011;16450;50.288;10.966;2024-03-06T16:04:00;28.63;;;17.00;;
29500;SDS011;16450;50.288;10.966;2024-03-06T16:07:03;28.47;;;18.43;;
29500;SDS011;16450;50.288;10.966;2024-03-06T16:10:05;28.10;;;18.10;;
29500;SDS011;16450;50.288;10.966;2024-03-06T16:13:07;31.37;;;18.93;;
29500;SDS011;16450;50.288;10.966;2024-03-06T16:16:09;33.57;;;19.90;;
29500;SDS011;16450;50.288;10.966;2024-03-06T16:19:11;39.03;;;21.37;;
29500;SDS011;16450;50.288;10.966;2024-03-06T16:22:13;34.90;;;20.53;;
29500;SDS011;16450;50.288;10.966;2024-03-06T16:25:15;33.17;;;19.27;;
29500;SDS011;16450;50.288;10.966;2024-03-06T16:28:17;38.77;;;20.50;;
29500;SDS011;16450;50.288;10.966;2024-03-06T16:31:19;35.50;;;20.67;;
29500;SDS011;16450;50.288;10.966;2024-03-06T16:34:22;32.87;;;19.53;;
29500;SDS011;16450;50.288;10.966;2024-03-06T16:37:25;31.37;;;19.77;;
29500;SDS011;16450;50.288;10.966;2024-03-06T16:40:27;36.17;;;21.80;;
29500;SDS011;16450;50.288;10.966;2024-03-06T16:43:29;40.33;;;22.17;;
29500;SDS011;16450;50.288;10.966;2024-03-06T16:46:31;35.17;;;21.60;;
29500;SDS011;16450;50.288;10.966;2024-03-06T16:49:33;32.73;;;20.47;;
29500;SDS011;16450;50.288;10.966;2024-03-06T16:52:34;34.57;;;22.47;;
29500;SDS011;16450;50.288;10.966;2024-03-06T16:55:36;34.67;;;21.10;;
29500;SDS011;16450;50.288;10.966;2024-03-06T16:58:38;35.43;;;20.60;;
29500;SDS011;16450;50.288;10.966;2024-03-06T17:01:41;37.10;;;20.73;;
29500;SDS011;16450;50.288;10.966;2024-03-06T17:04:43;34.73;;;21.30;;
29500;SDS011;16450;50.288;10.966;2024-03-06T17:07:45;37.37;;;22.37;;
29500;SDS011;16450;50.288;10.966;2024-03-06T17:10:47;37.53;;;22.33;;
29500;SDS011;16450;50.288;10.966;2024-03-06T17:13:50;37.23;;;22.33;;
29500;SDS011;16450;50.288;10.966;2024-03-06T17:16:52;36.97;;;22.27;;
29500;SDS011;16450;50.288;10.966;2024-03-06T17:19:54;40.97;;;22.67;;
29500;SDS011;16450;50.288;10.966;2024-03-06T17:22:56;44.17;;;24.63;;
29500;SDS011;16450;50.288;10.966;2024-03-06T17:25:59;41.83;;;25.73;;
29500;SDS011;16450;50.288;10.966;2024-03-06T17:29:01;40.20;;;24.43;;
29500;SDS011;16450;50.288;10.966;2024-03-06T17:32:03;40.83;;;25.37;;
29500;SDS011;16450;50.288;10.966;2024-03-06T17:35:06;40.43;;;25.70;;
29500;SDS011;16450;50.288;10.966;2024-03-06T17:38:10;39.80;;;25.10;;
29500;SDS011;16450;50.288;10.966;2024-03-06T17:41:12;39.17;;;24.53;;